sensor_id;sensor_type;location;lat;lon;timestamp;pressure;altitude;pressure_sealevel;temperature;humidity
3697;BME280;60662;48.810;8.872;2023-09-08T06:51:04;96822.28;;;18.22;75.60
3697;BME280;60662;48.810;8.872;2023-09-08T06:53:14;96829.72;;;18.65;74.14
3697;BME280;60662;48.810;8.872;2023-09-08T06:54:16;96824.56;;;18.75;73.83
3697;BME280;60662;48.810;8.872;2023-09-08T06:55:17;96824.25;;;18.80;73.54
3697;BME280;60662;48.810;8.872;2023-09-08T06:56:19;96827.22;;;19.11;72.62
3697;BME280;60662;48.810;8.872;2023-09-08T06:57:21;96828.69;;;19.03;73.51
3697;BME280;60662;48.810;8.872;2023-09-08T06:58:22;96829.59;;;19.72;71.30
3697;BME280;60662;48.810;8.872;2023-09-08T06:59:24;96837.66;;;19.93;70.56
3697;BME280;60662;48.810;8.872;2023-09-08T07:00:25;96836.56;;;19.84;70.57
3697;BME280;60662;48.810;8.872;2023-09-08T07:01:26;96827.50;;;19.75;70.98
3697;BME280;60662;48.810;8.872;2023-09-08T07:02:29;96828.00;;;20.03;70.29
3697;BME280;60662;48.810;8.872;2023-09-08T07:03:30;96836.63;;;20.28;69.96
3697;BME280;60662;48.810;8.872;2023-09-08T07:04:39;96837.22;;;20.64;68.79
3697;BME280;60662;48.810;8.872;2023-09-08T07:05:41;96836.44;;;20.52;69.33
3697;BME280;60662;48.810;8.872;2023-09-08T07:06:42;96830.25;;;20.96;68.31
3697;BME280;60662;48.810;8.872;2023-09-08T07:07:45;96828.63;;;21.26;67.88
3697;BME280;60662;48.810;8.872;2023-09-08T07:08:46;96831.09;;;22.00;65.75
3697;BME280;60662;48.810;8.872;2023-09-08T07:09:48;96826.38;;;21.73;65.60
3697;BME280;60662;48.810;8.872;2023-09-08T07:10:52;96837.38;;;21.68;66.15
3697;BME280;60662;48.810;8.872;2023-09-08T07:11:55;96838.09;;;21.71;66.04
3697;BME280;60662;48.810;8.872;2023-09-08T07:12:56;96834.63;;;21.49;66.12
3697;BME280;60662;48.810;8.872;2023-09-08T07:13:58;96835.53;;;21.59;66.28
3697;BME280;60662;48.810;8.872;2023-09-08T07:14:59;96835.97;;;21.95;65.64
3697;BME280;60662;48.810;8.872;2023-09-08T07:16:01;96826.97;;;22.37;64.27
3697;BME280;60662;48.810;8.872;2023-09-08T07:17:03;96832.59;;;22.63;63.99
3697;BME280;60662;48.810;8.872;2023-09-08T07:18:05;96836.25;;;22.82;63.50
3697;BME280;60662;48.810;8.872;2023-09-08T07:19:06;96839.00;;;23.49;62.28
3697;BME280;60662;48.810;8.872;2023-09-08T07:20:08;96843.75;;;23.83;61.26
3697;BME280;60662;48.810;8.872;2023-09-08T07:21:10;96839.97;;;23.48;61.84
3697;BME280;60662;48.810;8.872;2023-09-08T07:22:11;96836.59;;;23.46;61.78
3697;BME280;60662;48.810;8.872;2023-09-08T07:23:13;96834.88;;;23.64;61.83
3697;BME280;60662;48.810;8.872;2023-09-08T07:24:14;96839.72;;;23.79;61.27
3697;BME280;60662;48.810;8.872;2023-09-08T07:25:16;96844.75;;;23.82;60.96
3697;BME280;60662;48.810;8.872;2023-09-08T07:26:17;96841.38;;;23.80;61.44
3697;BME280;60662;48.810;8.872;2023-09-08T07:27:19;96840.50;;;23.99;61.09
3697;BME280;60662;48.810;8.872;2023-09-08T07:28:21;96836.03;;;23.90;60.94
3697;BME280;60662;48.810;8.872;2023-09-08T07:29:24;96833.75;;;23.57;61.46
3697;BME280;60662;48.810;8.872;2023-09-08T07:30:25;96836.31;;;23.96;60.96
3697;BME280;60662;48.810;8.872;2023-09-08T07:31:27;96837.28;;;24.23;60.65
3697;BME280;60662;48.810;8.872;2023-09-08T07:32:29;96837.22;;;24.51;59.69
3697;BME280;60662;48.810;8.872;2023-09-08T07:33:30;96833.22;;;24.83;58.68
3697;BME280;60662;48.810;8.872;2023-09-08T07:34:32;96829.78;;;25.09;58.05
3697;BME280;60662;48.810;8.872;2023-09-08T07:35:40;96829.09;;;24.71;59.37
3697;BME280;60662;48.810;8.872;2023-09-08T07:36:43;96833.06;;;24.67;59.62
3697;BME280;60662;48.810;8.872;2023-09-08T07:37:44;96834.50;;;24.97;59.00
3697;BME280;60662;48.810;8.872;2023-09-08T07:38:46;96833.13;;;25.11;58.57
3697;BME280;60662;48.810;8.872;2023-09-08T07:39:48;96834.91;;;24.84;59.26
3697;BME280;60662;48.810;8.872;2023-09-08T07:40:50;96829.38;;;25.22;58.83
3697;BME280;60662;48.810;8.872;2023-09-08T07:41:51;96830.72;;;25.79;57.82
3697;BME280;60662;48.810;8.872;2023-09-08T07:42:54;96829.72;;;25.80;57.41
3697;BME280;60662;48.810;8.872;2023-09-08T07:43:56;96831.44;;;25.89;57.36
3697;BME280;60662;48.810;8.872;2023-09-08T07:44:58;96830.22;;;25.75;57.40
3697;BME280;60662;48.810;8.872;2023-09-08T07:45:59;96837.00;;;25.96;57.17
3697;BME280;60662;48.810;8.872;2023-09-08T07:47:01;96838.00;;;25.68;57.71
3697;BME280;60662;48.810;8.872;2023-09-08T07:48:02;96833.94;;;25.56;58.10
3697;BME280;60662;48.810;8.872;2023-09-08T07:49:04;96833.81;;;25.66;58.13
3697;BME280;60662;48.810;8.872;2023-09-08T07:50:17;96841.28;;;25.88;57.91
3697;BME280;60662;48.810;8.872;2023-09-08T07:51:20;96836.84;;;26.40;56.62
3697;BME280;60662;48.810;8.872;2023-09-08T07:52:21;96834.25;;;26.22;57.09
3697;BME280;60662;48.810;8.872;2023-09-08T07:53:23;96839.00;;;26.36;57.41
3697;BME280;60662;48.810;8.872;2023-09-08T07:54:25;96839.03;;;26.61;56.75
3697;BME280;60662;48.810;8.872;2023-09-08T07:55:26;96839.38;;;26.66;56.10
3697;BME280;60662;48.810;8.872;2023-09-08T07:56:28;96839.63;;;27.39;55.17
3697;BME280;60662;48.810;8.872;2023-09-08T07:57:30;96847.13;;;27.27;55.00
3697;BME280;60662;48.810;8.872;2023-09-08T07:58:31;96846.81;;;26.97;55.80
3697;BME280;60662;48.810;8.872;2023-09-08T07:59:34;96842.44;;;27.29;55.41
3697;BME280;60662;48.810;8.872;2023-09-08T08:00:38;96842.63;;;27.03;55.32
3697;BME280;60662;48.810;8.872;2023-09-08T08:01:40;96840.25;;;27.25;55.21
3697;BME280;60662;48.810;8.872;2023-09-08T08:02:45;96848.63;;;27.30;54.92
3697;BME280;60662;48.810;8.872;2023-09-08T08:03:47;96839.75;;;27.04;55.67
3697;BME280;60662;48.810;8.872;2023-09-08T08:04:49;96837.41;;;27.34;55.05
3697;BME280;60662;48.810;8.872;2023-09-08T08:05:50;96839.75;;;27.04;55.63
3697;BME280;60662;48.810;8.872;2023-09-08T08:06:52;96835.25;;;26.88;56.11
3697;BME280;60662;48.810;8.872;2023-09-08T08:07:53;96843.81;;;27.09;55.78
3697;BME280;60662;48.810;8.872;2023-09-08T08:08:54;96830.91;;;27.29;55.37
3697;BME280;60662;48.810;8.872;2023-09-08T08:09:57;96840.94;;;27.27;55.99
3697;BME280;60662;48.810;8.872;2023-09-08T08:10:59;96833.25;;;27.40;55.20
3697;BME280;60662;48.810;8.872;2023-09-08T08:12:00;96839.44;;;27.08;56.04
3697;BME280;60662;48.810;8.872;2023-09-08T08:13:02;96839.91;;;27.61;54.57
3697;BME280;60662;48.810;8.872;2023-09-08T08:14:04;96840.44;;;27.48;55.20
3697;BME280;60662;48.810;8.872;2023-09-08T08:15:06;96832.84;;;27.68;55.22
3697;BME280;60662;48.810;8.872;2023-09-08T08:16:09;96837.25;;;27.52;55.43
3697;BME280;60662;48.810;8.872;2023-09-08T08:17:11;96843.59;;;27.60;55.41
3697;BME280;60662;48.810;8.872;2023-09-08T08:18:12;96834.06;;;27.49;55.84
3697;BME280;60662;48.810;8.872;2023-09-08T08:19:14;96836.88;;;27.72;55.44
3697;BME280;60662;48.810;8.872;2023-09-08T08:20:15;96832.78;;;27.93;55.72
3697;BME280;60662;48.810;8.872;2023-09-08T08:21:20;96835.38;;;27.61;55.95
3697;BME280;60662;48.810;8.872;2023-09-08T08:22:27;96837.78;;;27.40;56.68
3697;BME280;60662;48.810;8.872;2023-09-08T08:23:28;96839.38;;;27.65;56.38
3697;BME280;60662;48.810;8.872;2023-09-08T08:24:30;96836.88;;;27.72;55.80
3697;BME280;60662;48.810;8.872;2023-09-08T08:25:32;96835.06;;;27.64;55.43
3697;BME280;60662;48.810;8.872;2023-09-08T08:26:34;96836.00;;;27.80;54.69
3697;BME280;60662;48.810;8.872;2023-09-08T08:27:35;96846.28;;;27.60;55.41
3697;BME280;60662;48.810;8.872;2023-09-08T08:28:37;96833.41;;;27.30;55.65
3697;BME280;60662;48.810;8.872;2023-09-08T08:29:39;96838.19;;;27.76;55.84
3697;BME280;60662;48.810;8.872;2023-09-08T08:30:40;96835.91;;;26.82;57.31
3697;BME280;60662;48.810;8.872;2023-09-08T08:31:42;96838.53;;;26.49;57.34
3697;BME280;60662;48.810;8.872;2023-09-08T08:32:43;96837.00;;;26.47;57.65
3697;BME280;60662;48.810;8.872;2023-09-08T08:33:45;96840.03;;;26.44;58.69
3697;BME280;60662;48.810;8.872;2023-09-08T08:34:46;96829.72;;;26.14;59.03
3697;BME280;60662;48.810;8.872;2023-09-08T08:35:49;96834.16;;;26.40;58.41
3697;BME280;60662;48.810;8.872;2023-09-08T08:36:51;96831.13;;;26.35;58.60
3697;BME280;60662;48.810;8.872;2023-09-08T08:37:53;96828.22;;;27.29;57.06
3697;BME280;60662;48.810;8.872;2023-09-08T08:38:54;96835.56;;;27.60;56.91
3697;BME280;60662;48.810;8.872;2023-09-08T08:39:56;96826.38;;;27.13;57.43
3697;BME280;60662;48.810;8.872;2023-09-08T08:41:02;96832.06;;;27.18;57.29
3697;BME280;60662;48.810;8.872;2023-09-08T08:42:11;96834.25;;;27.06;57.98
3697;BME280;60662;48.810;8.872;2023-09-08T08:43:12;96831.19;;;26.68;58.28
3697;BME280;60662;48.810;8.872;2023-09-08T08:44:17;96827.31;;;26.46;58.83
3697;BME280;60662;48.810;8.872;2023-09-08T08:45:20;96830.50;;;26.41;58.78
3697;BME280;60662;48.810;8.872;2023-09-08T08:46:23;96829.13;;;26.37;59.00
3697;BME280;60662;48.810;8.872;2023-09-08T08:47:27;96834.41;;;26.12;60.10
3697;BME280;60662;48.810;8.872;2023-09-08T08:48:31;96832.03;;;26.09;59.94
3697;BME280;60662;48.810;8.872;2023-09-08T08:49:33;96829.53;;;26.67;59.04
3697;BME280;60662;48.810;8.872;2023-09-08T08:50:35;96839.75;;;26.88;58.78
3697;BME280;60662;48.810;8.872;2023-09-08T08:51:38;96837.00;;;26.47;59.04
3697;BME280;60662;48.810;8.872;2023-09-08T08:52:40;96828.13;;;26.30;59.20
3697;BME280;60662;48.810;8.872;2023-09-08T08:53:42;96833.97;;;26.33;59.31
3697;BME280;60662;48.810;8.872;2023-09-08T08:54:44;96829.63;;;26.32;59.00
3697;BME280;60662;48.810;8.872;2023-09-08T08:55:48;96830.06;;;26.11;60.05
3697;BME280;60662;48.810;8.872;2023-09-08T08:56:51;96828.47;;;26.43;59.62
3697;BME280;60662;48.810;8.872;2023-09-08T08:57:52;96831.47;;;26.40;59.13
3697;BME280;60662;48.810;8.872;2023-09-08T08:58:54;96832.56;;;26.80;58.77
3697;BME280;60662;48.810;8.872;2023-09-08T08:59:59;96832.97;;;26.34;59.47
3697;BME280;60662;48.810;8.872;2023-09-08T09:01:01;96834.63;;;26.27;59.56
3697;BME280;60662;48.810;8.872;2023-09-08T09:02:05;96826.47;;;26.02;60.25
3697;BME280;60662;48.810;8.872;2023-09-08T09:03:07;96834.41;;;26.12;59.69
3697;BME280;60662;48.810;8.872;2023-09-08T09:04:16;96831.31;;;26.42;60.25
3697;BME280;60662;48.810;8.872;2023-09-08T09:05:19;96825.09;;;26.33;59.71
3697;BME280;60662;48.810;8.872;2023-09-08T09:06:21;96829.66;;;26.57;59.95
3697;BME280;60662;48.810;8.872;2023-09-08T09:07:24;96826.88;;;26.92;58.71
3697;BME280;60662;48.810;8.872;2023-09-08T09:08:26;96825.03;;;26.84;58.73
3697;BME280;60662;48.810;8.872;2023-09-08T09:09:28;96823.69;;;27.04;57.87
3697;BME280;60662;48.810;8.872;2023-09-08T09:10:31;96825.88;;;26.84;58.07
3697;BME280;60662;48.810;8.872;2023-09-08T09:11:33;96829.03;;;27.37;57.05
3697;BME280;60662;48.810;8.872;2023-09-08T09:12:37;96823.19;;;27.34;57.22
3697;BME280;60662;48.810;8.872;2023-09-08T09:13:39;96818.81;;;27.25;57.40
3697;BME280;60662;48.810;8.872;2023-09-08T09:14:45;96820.88;;;27.06;57.98
3697;BME280;60662;48.810;8.872;2023-09-08T09:15:49;96825.84;;;27.59;57.46
3697;BME280;60662;48.810;8.872;2023-09-08T09:16:51;96826.41;;;27.94;56.67
3697;BME280;60662;48.810;8.872;2023-09-08T09:18:04;96825.03;;;28.06;56.23
3697;BME280;60662;48.810;8.872;2023-09-08T09:19:07;96821.72;;;27.88;56.17
3697;BME280;60662;48.810;8.872;2023-09-08T09:20:15;96828.13;;;27.78;56.17
3697;BME280;60662;48.810;8.872;2023-09-08T09:21:19;96828.59;;;27.90;55.72
3697;BME280;60662;48.810;8.872;2023-09-08T09:22:20;96826.63;;;27.76;56.37
3697;BME280;60662;48.810;8.872;2023-09-08T09:23:32;96834.38;;;27.54;56.50
3697;BME280;60662;48.810;8.872;2023-09-08T09:24:41;96825.78;;;27.83;56.32
3697;BME280;60662;48.810;8.872;2023-09-08T09:25:45;96829.75;;;28.90;54.43
3697;BME280;60662;48.810;8.872;2023-09-08T09:26:51;96821.81;;;29.88;52.45
3697;BME280;60662;48.810;8.872;2023-09-08T09:27:55;96832.00;;;28.78;53.27
3697;BME280;60662;48.810;8.872;2023-09-08T09:28:57;96828.56;;;28.38;55.15
3697;BME280;60662;48.810;8.872;2023-09-08T09:30:00;96835.94;;;28.44;55.54
3697;BME280;60662;48.810;8.872;2023-09-08T09:31:02;96834.78;;;28.70;55.13
3697;BME280;60662;48.810;8.872;2023-09-08T09:32:05;96826.50;;;28.48;54.58
3697;BME280;60662;48.810;8.872;2023-09-08T09:33:07;96836.34;;;28.88;54.34
3697;BME280;60662;48.810;8.872;2023-09-08T09:34:09;96830.66;;;28.51;55.33
3697;BME280;60662;48.810;8.872;2023-09-08T09:35:11;96832.09;;;28.62;55.70
3697;BME280;60662;48.810;8.872;2023-09-08T09:36:22;96828.50;;;28.46;56.21
3697;BME280;60662;48.810;8.872;2023-09-08T09:37:24;96835.28;;;28.34;56.87
3697;BME280;60662;48.810;8.872;2023-09-08T09:38:26;96832.88;;;28.47;56.65
3697;BME280;60662;48.810;8.872;2023-09-08T09:39:28;96828.69;;;28.76;56.16
3697;BME280;60662;48.810;8.872;2023-09-08T09:40:30;96831.31;;;29.76;54.98
3697;BME280;60662;48.810;8.872;2023-09-08T09:41:33;96822.84;;;30.75;52.59
3697;BME280;60662;48.810;8.872;2023-09-08T09:42:37;96822.88;;;31.04;51.38
3697;BME280;60662;48.810;8.872;2023-09-08T09:43:39;96823.97;;;30.66;51.44
3697;BME280;60662;48.810;8.872;2023-09-08T09:44:41;96823.59;;;30.48;52.16
3697;BME280;60662;48.810;8.872;2023-09-08T09:45:43;96826.97;;;30.20;52.44
3697;BME280;60662;48.810;8.872;2023-09-08T09:46:45;96825.53;;;30.54;50.78
3697;BME280;60662;48.810;8.872;2023-09-08T09:47:47;96829.81;;;30.18;52.28
3697;BME280;60662;48.810;8.872;2023-09-08T09:48:55;96828.03;;;30.77;50.99
3697;BME280;60662;48.810;8.872;2023-09-08T09:50:00;96824.22;;;30.93;51.27
3697;BME280;60662;48.810;8.872;2023-09-08T09:51:15;96823.41;;;31.42;50.19
3697;BME280;60662;48.810;8.872;2023-09-08T09:52:22;96825.78;;;30.81;50.59
3697;BME280;60662;48.810;8.872;2023-09-08T09:53:24;96827.22;;;31.48;50.00
3697;BME280;60662;48.810;8.872;2023-09-08T09:54:29;96827.41;;;32.10;49.06
3697;BME280;60662;48.810;8.872;2023-09-08T09:55:31;96828.94;;;32.26;48.60
3697;BME280;60662;48.810;8.872;2023-09-08T09:56:34;96830.91;;;32.59;48.56
3697;BME280;60662;48.810;8.872;2023-09-08T09:57:38;96826.09;;;32.48;47.71
3697;BME280;60662;48.810;8.872;2023-09-08T09:58:40;96819.69;;;32.62;48.14
3697;BME280;60662;48.810;8.872;2023-09-08T09:59:43;96826.66;;;33.18;47.14
3697;BME280;60662;48.810;8.872;2023-09-08T10:00:44;96827.84;;;32.82;47.32
3697;BME280;60662;48.810;8.872;2023-09-08T10:01:52;96828.94;;;32.33;47.45
3697;BME280;60662;48.810;8.872;2023-09-08T10:02:55;96824.69;;;32.65;47.53
3697;BME280;60662;48.810;8.872;2023-09-08T10:03:58;96827.03;;;32.75;47.32
3697;BME280;60662;48.810;8.872;2023-09-08T10:05:10;96818.75;;;32.21;48.07
3697;BME280;60662;48.810;8.872;2023-09-08T10:06:12;96831.44;;;31.86;48.26
3697;BME280;60662;48.810;8.872;2023-09-08T10:07:16;96827.66;;;32.22;48.45
3697;BME280;60662;48.810;8.872;2023-09-08T10:08:19;96824.84;;;32.02;48.22
3697;BME280;60662;48.810;8.872;2023-09-08T10:09:20;96825.03;;;32.35;47.83
3697;BME280;60662;48.810;8.872;2023-09-08T10:10:25;96821.22;;;33.52;46.80
3697;BME280;60662;48.810;8.872;2023-09-08T10:11:54;96822.06;;;33.05;46.53
3697;BME280;60662;48.810;8.872;2023-09-08T10:13:02;96819.59;;;34.30;44.71
3697;BME280;60662;48.810;8.872;2023-09-08T10:14:05;96820.19;;;34.77;43.51
3697;BME280;60662;48.810;8.872;2023-09-08T10:15:10;96825.59;;;34.77;43.80
3697;BME280;60662;48.810;8.872;2023-09-08T10:16:14;96820.44;;;34.69;43.35
3697;BME280;60662;48.810;8.872;2023-09-08T10:17:19;96822.56;;;35.24;42.57
3697;BME280;60662;48.810;8.872;2023-09-08T10:18:25;96821.59;;;35.44;42.46
3697;BME280;60662;48.810;8.872;2023-09-08T10:19:27;96813.63;;;35.68;42.07
3697;BME280;60662;48.810;8.872;2023-09-08T10:20:29;96821.03;;;34.71;43.09
3697;BME280;60662;48.810;8.872;2023-09-08T10:21:33;96818.19;;;31.63;47.93
3697;BME280;60662;48.810;8.872;2023-09-08T10:22:40;96810.97;;;32.12;47.70
3697;BME280;60662;48.810;8.872;2023-09-08T10:23:57;96812.72;;;32.26;47.17
3697;BME280;60662;48.810;8.872;2023-09-08T10:25:03;96816.75;;;34.11;44.62
3697;BME280;60662;48.810;8.872;2023-09-08T10:26:10;96812.50;;;35.06;43.00
3697;BME280;60662;48.810;8.872;2023-09-08T10:27:12;96812.66;;;35.11;43.63
3697;BME280;60662;48.810;8.872;2023-09-08T10:28:15;96813.06;;;35.66;42.49
3697;BME280;60662;48.810;8.872;2023-09-08T10:29:17;96817.47;;;35.35;42.27
3697;BME280;60662;48.810;8.872;2023-09-08T10:30:20;96808.94;;;35.38;42.33
3697;BME280;60662;48.810;8.872;2023-09-08T10:31:25;96810.06;;;35.48;42.64
3697;BME280;60662;48.810;8.872;2023-09-08T10:32:28;96818.25;;;34.00;44.80
3697;BME280;60662;48.810;8.872;2023-09-08T10:33:31;96809.56;;;35.33;43.46
3697;BME280;60662;48.810;8.872;2023-09-08T10:34:33;96816.91;;;36.13;41.62
3697;BME280;60662;48.810;8.872;2023-09-08T10:35:36;96814.44;;;36.61;41.53
3697;BME280;60662;48.810;8.872;2023-09-08T10:36:38;96811.34;;;34.57;42.72
3697;BME280;60662;48.810;8.872;2023-09-08T10:37:40;96811.63;;;32.82;45.77
3697;BME280;60662;48.810;8.872;2023-09-08T10:38:42;96812.84;;;32.73;45.86
3697;BME280;60662;48.810;8.872;2023-09-08T10:39:48;96808.63;;;31.32;49.16
3697;BME280;60662;48.810;8.872;2023-09-08T10:40:51;96802.00;;;31.06;48.91
3697;BME280;60662;48.810;8.872;2023-09-08T10:43:20;96804.00;;;33.40;45.26
3697;BME280;60662;48.810;8.872;2023-09-08T10:44:22;96809.13;;;33.88;44.66
3697;BME280;60662;48.810;8.872;2023-09-08T10:45:25;96805.63;;;35.04;43.02
3697;BME280;60662;48.810;8.872;2023-09-08T10:46:27;96807.06;;;35.31;42.73
3697;BME280;60662;48.810;8.872;2023-09-08T10:47:41;96809.63;;;35.26;43.10
3697;BME280;60662;48.810;8.872;2023-09-08T10:48:43;96803.97;;;35.53;42.34
3697;BME280;60662;48.810;8.872;2023-09-08T10:49:45;96807.44;;;35.60;42.03
3697;BME280;60662;48.810;8.872;2023-09-08T10:50:47;96809.47;;;34.05;44.65
3697;BME280;60662;48.810;8.872;2023-09-08T10:51:49;96811.66;;;35.38;42.88
3697;BME280;60662;48.810;8.872;2023-09-08T10:53:16;96806.38;;;36.85;41.31
3697;BME280;60662;48.810;8.872;2023-09-08T10:55:48;96807.50;;;35.28;42.73
3697;BME280;60662;48.810;8.872;2023-09-08T10:57:17;96807.81;;;35.64;42.15
3697;BME280;60662;48.810;8.872;2023-09-08T10:58:21;96808.34;;;35.29;42.46
3697;BME280;60662;48.810;8.872;2023-09-08T10:59:34;96805.22;;;33.50;45.27
3697;BME280;60662;48.810;8.872;2023-09-08T11:00:47;96802.53;;;34.61;44.15
3697;BME280;60662;48.810;8.872;2023-09-08T11:01:49;96802.34;;;35.89;42.43
3697;BME280;60662;48.810;8.872;2023-09-08T11:02:50;96805.75;;;36.03;42.07
3697;BME280;60662;48.810;8.872;2023-09-08T11:03:53;96810.84;;;36.30;41.24
3697;BME280;60662;48.810;8.872;2023-09-08T11:04:55;96805.72;;;34.90;43.35
3697;BME280;60662;48.810;8.872;2023-09-08T11:05:57;96808.88;;;35.44;42.89
3697;BME280;60662;48.810;8.872;2023-09-08T11:06:58;96813.00;;;36.09;41.28
3697;BME280;60662;48.810;8.872;2023-09-08T11:08:00;96809.38;;;36.65;41.09
3697;BME280;60662;48.810;8.872;2023-09-08T11:09:08;96808.34;;;35.29;42.10
3697;BME280;60662;48.810;8.872;2023-09-08T11:10:12;96801.31;;;35.90;41.58
3697;BME280;60662;48.810;8.872;2023-09-08T11:11:15;96807.28;;;36.78;40.68
3697;BME280;60662;48.810;8.872;2023-09-08T11:12:16;96806.06;;;36.63;41.04
3697;BME280;60662;48.810;8.872;2023-09-08T11:13:18;96807.31;;;36.29;41.97
3697;BME280;60662;48.810;8.872;2023-09-08T11:14:19;96806.28;;;36.61;41.18
3697;BME280;60662;48.810;8.872;2023-09-08T11:15:21;96796.56;;;35.60;41.88
3697;BME280;60662;48.810;8.872;2023-09-08T11:16:24;96804.13;;;36.51;41.20
3697;BME280;60662;48.810;8.872;2023-09-08T11:17:31;96800.31;;;36.22;42.05
3697;BME280;60662;48.810;8.872;2023-09-08T11:18:34;96811.00;;;37.50;40.89
3697;BME280;60662;48.810;8.872;2023-09-08T11:19:46;96811.69;;;34.22;43.51
3697;BME280;60662;48.810;8.872;2023-09-08T11:20:52;96804.53;;;34.79;43.68
3697;BME280;60662;48.810;8.872;2023-09-08T11:21:53;96805.03;;;35.52;42.05
3697;BME280;60662;48.810;8.872;2023-09-08T11:22:57;96807.13;;;35.50;42.70
3697;BME280;60662;48.810;8.872;2023-09-08T11:23:58;96809.69;;;35.45;42.28
3697;BME280;60662;48.810;8.872;2023-09-08T11:25:01;96802.63;;;34.87;43.62
3697;BME280;60662;48.810;8.872;2023-09-08T11:26:06;96804.59;;;35.74;42.87
3697;BME280;60662;48.810;8.872;2023-09-08T11:27:11;96803.13;;;36.15;41.68
3697;BME280;60662;48.810;8.872;2023-09-08T11:28:12;96803.38;;;36.44;41.13
3697;BME280;60662;48.810;8.872;2023-09-08T11:29:15;96808.53;;;36.95;40.91
3697;BME280;60662;48.810;8.872;2023-09-08T11:30:17;96809.09;;;36.85;41.34
3697;BME280;60662;48.810;8.872;2023-09-08T11:31:19;96808.75;;;36.51;40.86
3697;BME280;60662;48.810;8.872;2023-09-08T11:32:20;96807.84;;;36.69;41.28
3697;BME280;60662;48.810;8.872;2023-09-08T11:33:23;96807.22;;;36.55;40.68
3697;BME280;60662;48.810;8.872;2023-09-08T11:34:29;96811.41;;;36.39;41.59
3697;BME280;60662;48.810;8.872;2023-09-08T11:35:31;96803.13;;;37.18;40.14
3697;BME280;60662;48.810;8.872;2023-09-08T11:36:34;96807.91;;;37.35;39.88
3697;BME280;60662;48.810;8.872;2023-09-08T11:37:37;96801.72;;;37.16;39.82
3697;BME280;60662;48.810;8.872;2023-09-08T11:38:39;96803.50;;;35.56;42.60
3697;BME280;60662;48.810;8.872;2023-09-08T11:39:43;96809.00;;;36.61;41.26
3697;BME280;60662;48.810;8.872;2023-09-08T11:40:45;96803.63;;;37.27;40.17
3697;BME280;60662;48.810;8.872;2023-09-08T11:41:46;96805.03;;;36.75;40.47
3697;BME280;60662;48.810;8.872;2023-09-08T11:42:48;96805.28;;;36.43;41.55
3697;BME280;60662;48.810;8.872;2023-09-08T11:43:49;96802.91;;;36.77;40.86
3697;BME280;60662;48.810;8.872;2023-09-08T11:44:51;96803.84;;;37.14;39.74
3697;BME280;60662;48.810;8.872;2023-09-08T11:45:53;96803.84;;;37.25;39.95
3697;BME280;60662;48.810;8.872;2023-09-08T11:46:54;96811.75;;;37.15;40.46
3697;BME280;60662;48.810;8.872;2023-09-08T11:47:57;96799.00;;;34.22;43.93
3697;BME280;60662;48.810;8.872;2023-09-08T11:48:58;96800.38;;;34.77;43.67
3697;BME280;60662;48.810;8.872;2023-09-08T11:50:00;96798.22;;;35.87;41.79
3697;BME280;60662;48.810;8.872;2023-09-08T11:51:01;96812.00;;;36.22;41.22
3697;BME280;60662;48.810;8.872;2023-09-08T11:52:04;96805.50;;;35.49;42.64
3697;BME280;60662;48.810;8.872;2023-09-08T11:53:06;96802.66;;;35.81;42.67
3697;BME280;60662;48.810;8.872;2023-09-08T11:54:07;96802.06;;;35.28;42.78
3697;BME280;60662;48.810;8.872;2023-09-08T11:55:09;96798.03;;;36.19;41.96
3697;BME280;60662;48.810;8.872;2023-09-08T11:56:11;96802.34;;;36.57;41.61
3697;BME280;60662;48.810;8.872;2023-09-08T11:57:12;96802.50;;;35.76;41.83
3697;BME280;60662;48.810;8.872;2023-09-08T11:58:15;96805.41;;;35.56;42.41
3697;BME280;60662;48.810;8.872;2023-09-08T11:59:18;96801.25;;;35.72;42.65
3697;BME280;60662;48.810;8.872;2023-09-08T12:00:20;96811.25;;;36.64;41.24
3697;BME280;60662;48.810;8.872;2023-09-08T12:01:24;96807.97;;;37.16;40.96
3697;BME280;60662;48.810;8.872;2023-09-08T12:02:26;96806.72;;;37.42;39.85
3697;BME280;60662;48.810;8.872;2023-09-08T12:03:27;96803.50;;;36.00;41.70
3697;BME280;60662;48.810;8.872;2023-09-08T12:04:30;96801.97;;;36.23;41.66
3697;BME280;60662;48.810;8.872;2023-09-08T12:05:31;96805.38;;;36.67;41.40
3697;BME280;60662;48.810;8.872;2023-09-08T12:06:33;96807.63;;;35.66;42.28
3697;BME280;60662;48.810;8.872;2023-09-08T12:07:37;96809.59;;;36.14;41.00
3697;BME280;60662;48.810;8.872;2023-09-08T12:08:39;96801.41;;;35.58;42.64
3697;BME280;60662;48.810;8.872;2023-09-08T12:09:40;96802.03;;;36.16;41.31
3697;BME280;60662;48.810;8.872;2023-09-08T12:10:43;96798.16;;;36.24;41.26
3697;BME280;60662;48.810;8.872;2023-09-08T12:11:44;96805.25;;;35.51;42.63
3697;BME280;60662;48.810;8.872;2023-09-08T12:12:52;96807.75;;;35.52;43.43
3697;BME280;60662;48.810;8.872;2023-09-08T12:14:01;96799.06;;;35.80;42.63
3697;BME280;60662;48.810;8.872;2023-09-08T12:15:03;96805.59;;;36.17;42.08
3697;BME280;60662;48.810;8.872;2023-09-08T12:16:18;96805.81;;;36.64;40.94
3697;BME280;60662;48.810;8.872;2023-09-08T12:17:21;96806.69;;;35.28;42.51
3697;BME280;60662;48.810;8.872;2023-09-08T12:18:39;96796.31;;;36.24;41.44
3697;BME280;60662;48.810;8.872;2023-09-08T12:19:41;96804.53;;;36.97;40.81
3697;BME280;60662;48.810;8.872;2023-09-08T12:20:44;96804.06;;;37.24;40.30
3697;BME280;60662;48.810;8.872;2023-09-08T12:21:59;96805.03;;;36.45;41.13
3697;BME280;60662;48.810;8.872;2023-09-08T12:23:03;96794.97;;;35.96;41.72
3697;BME280;60662;48.810;8.872;2023-09-08T12:24:05;96796.31;;;36.24;41.10
3697;BME280;60662;48.810;8.872;2023-09-08T12:25:08;96792.09;;;35.91;41.89
3697;BME280;60662;48.810;8.872;2023-09-08T12:26:10;96792.28;;;36.27;41.79
3697;BME280;60662;48.810;8.872;2023-09-08T12:27:11;96799.47;;;36.70;41.55
3697;BME280;60662;48.810;8.872;2023-09-08T12:28:13;96794.66;;;36.42;41.43
3697;BME280;60662;48.810;8.872;2023-09-08T12:29:15;96797.16;;;36.86;40.56
3697;BME280;60662;48.810;8.872;2023-09-08T12:30:21;96793.34;;;36.75;40.87
3697;BME280;60662;48.810;8.872;2023-09-08T12:31:23;96797.31;;;37.03;40.29
3697;BME280;60662;48.810;8.872;2023-09-08T12:32:25;96797.53;;;35.91;41.83
3697;BME280;60662;48.810;8.872;2023-09-08T12:33:27;96794.41;;;36.25;41.75
3697;BME280;60662;48.810;8.872;2023-09-08T12:34:30;96798.44;;;36.04;41.68